Time;durP1;ratioP1;P1;durP2;ratioP2;P2;SDS_P1;SDS_P2;PMS_P1;PMS_P2;Temp;Humidity;BMP_temperature;BMP_pressure;BME280_temperature;BME280_humidity;BME280_pressure;Samples;Min_cycle;Max_cycle;Signal;HPM_P1;HPM_P2
2023/12/16 00:01:10;;;;;;;;;;;;;;;;;;5075658;28;19908;-70
2023/12/16 00:03:36;;;;;;;;;;;;;;;;;;5076523;28;19908;-71
2023/12/16 00:06:02;;;;;;;;;;;;;;;;;;5076835;28;19959;-70
2023/12/16 00:08:28;;;;;;;;;;;;;;;;;;5075477;28;19908;-70
2023/12/16 00:10:53;;;;;;;;;;;;;;;;;;5075150;28;20440;-70
2023/12/16 00:13:19;;;;;;;;;;;;;;;;;;5076907;28;20277;-70
2023/12/16 00:15:45;;;;;;;;;;;;;;;;;;5076644;28;19919;-70
2023/12/16 00:18:11;;;;;;;;;;;;;;;;;;5076311;28;19908;-70
2023/12/16 00:20:37;;;;;;;;;;;;;;;;;;5076549;28;19917;-70
2023/12/16 00:23:03;;;;;;;;;;;;;;;;;;5076522;28;20277;-70
2023/12/16 00:25:29;;;;;;;;;;;;;;;;;;5076026;28;19912;-70
2023/12/16 00:27:55;;;;;;;;;;;;;;;;;;5076952;28;20001;-70
2023/12/16 00:30:21;;;;;;;;;;;;;;;;;;5076207;28;20372;-70
2023/12/16 00:32:47;;;;;;;;;;;;;;;;;;5075851;28;19916;-70
2023/12/16 00:35:13;;;;;;;;;;;;;;;;;;5076370;28;19908;-70
2023/12/16 00:37:39;;;;;;;;;;;;;;;;;;5075019;28;20361;-70
2023/12/16 00:40:05;;;;;;;;;;;;;;;;;;5075892;28;19966;-70
2023/12/16 00:42:31;;;;;;;;;;;;;;;;;;5074891;28;19908;-72
2023/12/16 00:44:57;;;;;;;;;;;;;;;;;;5076263;28;19915;-70
2023/12/16 00:47:23;;;;;;;;;;;;;;;;;;5075230;28;19909;-70
2023/12/16 00:49:49;;;;;;;;;;;;;;;;;;5075500;28;19909;-70
2023/12/16 00:52:15;;;;;;;;;;;;;;;;;;5075880;28;19973;-70
2023/12/16 00:54:41;;;;;;;;;;;;;;;;;;5075559;28;19908;-70
2023/12/16 00:57:07;;;;;;;;;;;;;;;;;;5075860;28;19915;-71
2023/12/16 00:59:33;;;;;;;;;;;;;;;;;;5075433;28;19908;-70
2023/12/16 01:01:59;;;;;;;;;;;;;;;;;;5075778;28;19934;-70
2023/12/16 01:04:25;;;;;;;;;;;;;;;;;;5075844;28;19912;-70
2023/12/16 01:06:51;;;;;;;;;;;;;;;;;;5075247;28;19932;-70
2023/12/16 01:09:17;;;;;;;;;;;;;;;;;;5075636;28;19908;-70
2023/12/16 01:11:43;;;;;;;;;;;;;;;;;;5075531;28;20005;-70
2023/12/16 01:14:09;;;;;;;;;;;;;;;;;;5073890;28;19912;-70
2023/12/16 01:16:35;;;;;;;;;;;;;;;;;;5075526;28;19919;-70
2023/12/16 01:19:01;;;;;;;;;;;;;;;;;;5075522;28;19908;-70
2023/12/16 01:21:27;;;;;;;;;;;;;;;;;;5075063;28;20012;-70
2023/12/16 01:23:54;;;;;;;;;;;;;;;;;;5075360;28;20254;-70
2023/12/16 01:26:19;;;;;;;;;;;;;;;;;;5075344;28;19939;-70
2023/12/16 01:28:45;;;;;;;;;;;;;;;;;;5074721;28;19920;-70
2023/12/16 01:31:11;;;;;;;;;;;;;;;;;;5075202;28;19916;-70
2023/12/16 01:33:37;;;;;;;;;;;;;;;;;;5075188;28;19920;-70
2023/12/16 01:36:03;;;;;;;;;;;;;;;;;;5074898;28;20011;-70
2023/12/16 01:38:29;;;;;;;;;;;;;;;;;;5073857;28;19908;-70
2023/12/16 01:40:55;;;;;;;;;;;;;;;;;;5075027;28;20009;-70
2023/12/16 01:43:21;;;;;;;;;;;;;;;;;;5073341;28;19908;-70
2023/12/16 01:45:47;;;;;;;;;;;;;;;;;;5075123;28;20318;-70
2023/12/16 01:48:13;;;;;;;;;;;;;;;;;;5074875;28;19931;-70
2023/12/16 01:50:39;;;;;;;;;;;;;;;;;;5074427;28;19947;-70
2023/12/16 01:53:05;;;;;;;;;;;;;;;;;;5074651;28;19973;-70
2023/12/16 01:55:31;;;;;;;;;;;;;;;;;;5074791;28;19908;-71
2023/12/16 01:57:57;;;;;;;;;;;;;;;;;;5074358;28;19908;-70
2023/12/16 02:00:23;;;;;;;;;;;;;;;;;;5073196;28;19909;-70
2023/12/16 02:02:49;;;;;;;;;;;;;;;;;;5074742;28;19908;-71
2023/12/16 02:05:15;;;;;;;;;;;;;;;;;;5075064;28;19920;-71
2023/12/16 02:07:41;;;;;;;;;;;;;;;;;;5074583;28;20258;-71
2023/12/16 02:10:08;;;;;;;;;;;;;;;;;;5074120;28;20609;-71
2023/12/16 02:12:34;;;;;;;;;;;;;;;;;;5074528;28;20391;-70
2023/12/16 02:15:00;;;;;;;;;;;;;;;;;;5074732;28;19995;-70
2023/12/16 02:17:26;;;;;;;;;;;;;;;;;;5073947;28;19916;-70
2023/12/16 02:19:52;;;;;;;;;;;;;;;;;;5074850;28;19908;-70
2023/12/16 02:22:17;;;;;;;;;;;;;;;;;;5074194;28;19909;-70
2023/12/16 02:24:43;;;;;;;;;;;;;;;;;;5072597;28;19915;-70
2023/12/16 02:27:09;;;;;;;;;;;;;;;;;;5074191;28;19908;-70
2023/12/16 02:29:35;;;;;;;;;;;;;;;;;;5073929;28;19943;-70
2023/12/16 02:32:01;;;;;;;;;;;;;;;;;;5073654;28;19916;-70
2023/12/16 02:34:28;;;;;;;;;;;;;;;;;;5074075;28;19908;-71
2023/12/16 02:36:54;;;;;;;;;;;;;;;;;;5072797;28;19954;-70
2023/12/16 02:39:20;;;;;;;;;;;;;;;;;;5073584;28;20284;-70
2023/12/16 02:41:46;;;;;;;;;;;;;;;;;;5074023;28;19931;-70
2023/12/16 02:44:12;;;;;;;;;;;;;;;;;;5073979;28;19908;-70
2023/12/16 02:46:38;;;;;;;;;;;;;;;;;;5073542;28;19909;-70
2023/12/16 02:49:04;;;;;;;;;;;;;;;;;;5073960;28;19947;-70
2023/12/16 02:51:30;;;;;;;;;;;;;;;;;;5073768;28;19923;-70
2023/12/16 02:53:56;;;;;;;;;;;;;;;;;;5073459;28;19910;-70
2023/12/16 02:56:21;;;;;;;;;;;;;;;;;;5073862;28;19908;-71
2023/12/16 02:58:47;;;;;;;;;;;;;;;;;;5072571;28;20364;-71
2023/12/16 03:01:13;;;;;;;;;;;;;;;;;;5073454;28;20011;-70
2023/12/16 03:03:39;;;;;;;;;;;;;;;;;;5073934;28;19909;-71
2023/12/16 03:06:05;;;;;;;;;;;;;;;;;;5073386;28;19919;-70
2023/12/16 03:08:31;;;;;;;;;;;;;;;;;;5073694;28;19909;-71
2023/12/16 03:10:57;;;;;;;;;;;;;;;;;;5074048;28;19908;-70
2023/12/16 03:13:23;;;;;;;;;;;;;;;;;;5077392;28;19923;-70
2023/12/16 03:15:49;;;;;;;;;;;;;;;;;;5077804;28;19912;-71
2023/12/16 03:18:15;;;;;;;;;;;;;;;;;;5076494;28;19913;-70
2023/12/16 03:20:41;;;;;;;;;;;;;;;;;;5076056;28;19909;-70
2023/12/16 03:23:07;;;;;;;;;;;;;;;;;;5077690;28;19909;-71
2023/12/16 03:25:33;;;;;;;;;;;;;;;;;;5077627;28;20046;-70
2023/12/16 03:27:59;;;;;;;;;;;;;;;;;;5077174;28;19908;-70
2023/12/16 03:30:25;;;;;;;;;;;;;;;;;;5077449;28;19932;-70
2023/12/16 03:32:51;;;;;;;;;;;;;;;;;;5077475;28;20422;-70
2023/12/16 03:35:16;;;;;;;;;;;;;;;;;;5077107;28;20306;-70
2023/12/16 03:37:42;;;;;;;;;;;;;;;;;;5077521;28;19995;-70
2023/12/16 03:40:08;;;;;;;;;;;;;;;;;;5077437;28;19913;-71
2023/12/16 03:42:34;;;;;;;;;;;;;;;;;;5075732;28;20003;-72
2023/12/16 03:45:00;;;;;;;;;;;;;;;;;;5077248;28;19909;-70
2023/12/16 03:47:26;;;;;;;;;;;;;;;;;;5077304;28;19908;-71
2023/12/16 03:49:52;;;;;;;;;;;;;;;;;;5076725;28;19932;-70
2023/12/16 03:52:18;;;;;;;;;;;;;;;;;;5077050;28;19977;-70
2023/12/16 03:54:44;;;;;;;;;;;;;;;;;;5077057;28;19908;-70
2023/12/16 03:57:10;;;;;;;;;;;;;;;;;;5076607;28;19909;-70
2023/12/16 03:59:36;;;;;;;;;;;;;;;;;;5075736;28;19940;-71
2023/12/16 04:02:02;;;;;;;;;;;;;;;;;;5076961;28;19955;-70
2023/12/16 04:04:29;;;;;;;;;;;;;;;;;;5076544;28;19999;-71
2023/12/16 04:06:59;;;;;;;;;;;;;;;;;;5076835;28;19912;-70
2023/12/16 04:09:25;;;;;;;;;;;;;;;;;;5075130;28;19912;-71
2023/12/16 04:11:51;;;;;;;;;;;;;;;;;;5076734;28;19912;-71
2023/12/16 04:14:17;;;;;;;;;;;;;;;;;;5076747;28;19916;-71
2023/12/16 04:16:43;;;;;;;;;;;;;;;;;;5075096;28;20314;-70
2023/12/16 04:19:09;;;;;;;;;;;;;;;;;;5076800;28;20376;-70
2023/12/16 04:21:37;;;;;;;;;;;;;;;;;;5076961;28;20257;-71
2023/12/16 04:24:02;;;;;;;;;;;;;;;;;;5076215;28;19912;-71
2023/12/16 04:26:28;;;;;;;;;;;;;;;;;;5077069;28;20374;-70
2023/12/16 04:28:54;;;;;;;;;;;;;;;;;;5076373;28;20375;-70
2023/12/16 04:31:20;;;;;;;;;;;;;;;;;;5076056;28;19914;-71
2023/12/16 04:33:46;;;;;;;;;;;;;;;;;;5075060;28;19908;-70
2023/12/16 04:36:13;;;;;;;;;;;;;;;;;;5076311;28;19909;-71
2023/12/16 04:38:39;;;;;;;;;;;;;;;;;;5074610;28;19912;-71
2023/12/16 04:41:05;;;;;;;;;;;;;;;;;;5076329;28;19913;-71
2023/12/16 04:43:31;;;;;;;;;;;;;;;;;;5074887;28;19916;-71
2023/12/16 04:45:56;;;;;;;;;;;;;;;;;;5074463;28;19916;-71
2023/12/16 04:48:22;;;;;;;;;;;;;;;;;;5076205;28;19917;-71
2023/12/16 04:50:48;;;;;;;;;;;;;;;;;;5076075;28;19923;-71
2023/12/16 04:53:14;;;;;;;;;;;;;;;;;;5074355;28;19916;-71
2023/12/16 04:55:40;;;;;;;;;;;;;;;;;;5076016;28;19909;-71
2023/12/16 04:58:06;;;;;;;;;;;;;;;;;;5076205;28;20344;-71
2023/12/16 05:00:32;;;;;;;;;;;;;;;;;;5075572;28;20357;-71
2023/12/16 05:02:59;;;;;;;;;;;;;;;;;;5075743;28;20273;-70
2023/12/16 05:05:25;;;;;;;;;;;;;;;;;;5075760;28;19918;-70
2023/12/16 05:07:51;;;;;;;;;;;;;;;;;;5075335;28;19908;-70
2023/12/16 05:10:16;;;;;;;;;;;;;;;;;;5075782;28;20013;-70
2023/12/16 05:12:42;;;;;;;;;;;;;;;;;;5075134;28;19934;-71
2023/12/16 05:15:08;;;;;;;;;;;;;;;;;;5075541;28;19918;-71
2023/12/16 05:17:34;;;;;;;;;;;;;;;;;;5075526;28;20356;-71
2023/12/16 05:20:00;;;;;;;;;;;;;;;;;;5075065;28;19913;-70
2023/12/16 05:22:26;;;;;;;;;;;;;;;;;;5075431;28;19908;-70
2023/12/16 05:24:52;;;;;;;;;;;;;;;;;;5075360;28;19912;-70
2023/12/16 05:27:18;;;;;;;;;;;;;;;;;;5074944;28;19916;-70
2023/12/16 05:29:44;;;;;;;;;;;;;;;;;;5073866;28;19920;-71
2023/12/16 05:32:10;;;;;;;;;;;;;;;;;;5073954;28;19966;-71
2023/12/16 05:34:36;;;;;;;;;;;;;;;;;;5074255;28;19947;-71
2023/12/16 05:37:02;;;;;;;;;;;;;;;;;;5073892;28;19931;-71
2023/12/16 05:39:29;;;;;;;;;;;;;;;;;;5073870;28;19908;-71
2023/12/16 05:41:55;;;;;;;;;;;;;;;;;;5074617;28;19919;-71
2023/12/16 05:44:21;;;;;;;;;;;;;;;;;;5075021;28;19908;-71
2023/12/16 05:46:47;;;;;;;;;;;;;;;;;;5074915;28;19963;-71
2023/12/16 05:49:13;;;;;;;;;;;;;;;;;;5074725;28;20377;-70
2023/12/16 05:51:39;;;;;;;;;;;;;;;;;;5074992;28;20257;-71
2023/12/16 05:54:05;;;;;;;;;;;;;;;;;;5074793;28;19924;-71
2023/12/16 05:56:31;;;;;;;;;;;;;;;;;;5073122;28;19908;-70
2023/12/16 05:58:57;;;;;;;;;;;;;;;;;;5074718;28;19916;-70
2023/12/16 06:01:23;;;;;;;;;;;;;;;;;;5074759;28;19962;-70
2023/12/16 06:03:49;;;;;;;;;;;;;;;;;;5074243;28;19909;-70
2023/12/16 06:06:15;;;;;;;;;;;;;;;;;;5074578;28;19913;-70
2023/12/16 06:08:41;;;;;;;;;;;;;;;;;;5074535;28;19914;-70
2023/12/16 06:11:07;;;;;;;;;;;;;;;;;;5074109;28;20384;-71
2023/12/16 06:13:33;;;;;;;;;;;;;;;;;;5074410;28;19920;-70
2023/12/16 06:15:59;;;;;;;;;;;;;;;;;;5073962;28;19932;-70
2023/12/16 06:18:25;;;;;;;;;;;;;;;;;;5074338;28;19966;-70
2023/12/16 06:20:51;;;;;;;;;;;;;;;;;;5074366;28;19908;-70
2023/12/16 06:23:17;;;;;;;;;;;;;;;;;;5072634;28;19909;-70
2023/12/16 06:25:43;;;;;;;;;;;;;;;;;;5074309;28;19908;-70
2023/12/16 06:28:09;;;;;;;;;;;;;;;;;;5074039;28;19955;-70
2023/12/16 06:30:35;;;;;;;;;;;;;;;;;;5074079;28;19963;-71
2023/12/16 06:33:01;;;;;;;;;;;;;;;;;;5072791;28;20434;-71
2023/12/16 06:35:27;;;;;;;;;;;;;;;;;;5074188;28;19913;-70
2023/12/16 06:37:53;;;;;;;;;;;;;;;;;;5073995;28;19943;-70
2023/12/16 06:40:19;;;;;;;;;;;;;;;;;;5072751;28;19909;-70
2023/12/16 06:42:45;;;;;;;;;;;;;;;;;;5074026;28;19965;-70
2023/12/16 06:45:11;;;;;;;;;;;;;;;;;;5072101;28;20289;-70
2023/12/16 06:47:37;;;;;;;;;;;;;;;;;;5072106;28;20054;-70
2023/12/16 06:50:03;;;;;;;;;;;;;;;;;;5073988;28;19917;-70
2023/12/16 06:52:29;;;;;;;;;;;;;;;;;;5073412;28;19916;-69
2023/12/16 06:54:55;;;;;;;;;;;;;;;;;;5073804;28;20003;-69
2023/12/16 06:57:21;;;;;;;;;;;;;;;;;;5074023;28;19909;-71
2023/12/16 06:59:47;;;;;;;;;;;;;;;;;;5073582;28;19915;-70
2023/12/16 07:02:13;;;;;;;;;;;;;;;;;;5073801;28;19931;-71
2023/12/16 07:04:39;;;;;;;;;;;;;;;;;;5073844;28;19912;-70
2023/12/16 07:07:05;;;;;;;;;;;;;;;;;;5073426;28;20399;-72
2023/12/16 07:09:31;;;;;;;;;;;;;;;;;;5073714;28;19909;-70
2023/12/16 07:11:57;;;;;;;;;;;;;;;;;;5073670;28;19916;-70
2023/12/16 07:14:23;;;;;;;;;;;;;;;;;;5073388;28;20341;-70
2023/12/16 07:16:49;;;;;;;;;;;;;;;;;;5073617;28;19931;-70
2023/12/16 07:19:15;;;;;;;;;;;;;;;;;;5073304;28;19912;-70
2023/12/16 07:21:41;;;;;;;;;;;;;;;;;;5073929;28;20370;-70
2023/12/16 07:24:07;;;;;;;;;;;;;;;;;;5073575;28;20002;-70
2023/12/16 07:26:34;;;;;;;;;;;;;;;;;;5073766;28;19909;-71
2023/12/16 07:29:00;;;;;;;;;;;;;;;;;;5073365;28;19935;-71
2023/12/16 07:31:26;;;;;;;;;;;;;;;;;;5073440;28;20034;-71
2023/12/16 07:33:52;;;;;;;;;;;;;;;;;;5071796;28;19998;-71
2023/12/16 07:36:18;;;;;;;;;;;;;;;;;;5073449;28;19908;-70
2023/12/16 07:38:45;;;;;;;;;;;;;;;;;;5073637;28;19915;-70
2023/12/16 07:41:11;;;;;;;;;;;;;;;;;;5072978;28;20301;-70
2023/12/16 07:43:37;;;;;;;;;;;;;;;;;;5073438;28;19999;-70
2023/12/16 07:46:03;;;;;;;;;;;;;;;;;;5073723;28;19908;-70
2023/12/16 07:48:29;;;;;;;;;;;;;;;;;;5072940;28;19908;-70
2023/12/16 07:50:55;;;;;;;;;;;;;;;;;;5073525;28;19913;-70
2023/12/16 07:53:21;;;;;;;;;;;;;;;;;;5073150;28;20395;-70
2023/12/16 07:55:48;;;;;;;;;;;;;;;;;;5072870;28;19909;-71
2023/12/16 07:58:14;;;;;;;;;;;;;;;;;;5075506;28;19908;-70
2023/12/16 08:00:40;;;;;;;;;;;;;;;;;;5076937;28;19957;-71
2023/12/16 08:03:06;;;;;;;;;;;;;;;;;;5076503;28;19978;-71
2023/12/16 08:05:32;;;;;;;;;;;;;;;;;;5076896;28;19908;-71
2023/12/16 08:07:58;;;;;;;;;;;;;;;;;;5076838;28;20375;-70
2023/12/16 08:10:24;;;;;;;;;;;;;;;;;;5076416;28;19908;-70
2023/12/16 08:12:50;;;;;;;;;;;;;;;;;;5077041;28;19923;-71
2023/12/16 08:15:16;;;;;;;;;;;;;;;;;;5076737;28;20422;-70
2023/12/16 08:17:42;;;;;;;;;;;;;;;;;;5076248;28;19955;-70
2023/12/16 08:20:08;;;;;;;;;;;;;;;;;;5076626;28;19913;-70
2023/12/16 08:22:34;;;;;;;;;;;;;;;;;;5074946;28;20323;-70
2023/12/16 08:25:00;;;;;;;;;;;;;;;;;;5076527;28;19954;-70
2023/12/16 08:27:26;;;;;;;;;;;;;;;;;;5076540;28;19908;-70
2023/12/16 08:29:52;;;;;;;;;;;;;;;;;;5075879;28;19925;-70
2023/12/16 08:32:18;;;;;;;;;;;;;;;;;;5076300;28;19919;-70
2023/12/16 08:34:44;;;;;;;;;;;;;;;;;;5076354;28;19950;-71
2023/12/16 08:37:10;;;;;;;;;;;;;;;;;;5075947;28;20003;-71
2023/12/16 08:39:35;;;;;;;;;;;;;;;;;;5076294;28;19916;-71
2023/12/16 08:42:01;;;;;;;;;;;;;;;;;;5076305;28;19908;-70
2023/12/16 08:44:27;;;;;;;;;;;;;;;;;;5075805;28;20376;-70
2023/12/16 08:46:53;;;;;;;;;;;;;;;;;;5076110;28;20300;-71
2023/12/16 08:49:20;;;;;;;;;;;;;;;;;;5074769;28;20281;-70
2023/12/16 08:51:47;;;;;;;;;;;;;;;;;;5075670;28;20327;-70
2023/12/16 08:54:13;;;;;;;;;;;;;;;;;;5076041;28;20010;-70
2023/12/16 08:56:39;;;;;;;;;;;;;;;;;;5076553;28;20416;-71
2023/12/16 08:59:05;;;;;;;;;;;;;;;;;;5074228;28;20383;-71
2023/12/16 09:01:32;;;;;;;;;;;;;;;;;;5075853;28;20277;-71
2023/12/16 09:03:58;;;;;;;;;;;;;;;;;;5075953;28;19909;-71
2023/12/16 09:06:24;;;;;;;;;;;;;;;;;;5074251;28;19918;-71
2023/12/16 09:08:50;;;;;;;;;;;;;;;;;;5074832;28;20003;-71
2023/12/16 09:11:16;;;;;;;;;;;;;;;;;;5075637;28;19942;-71
2023/12/16 09:13:43;;;;;;;;;;;;;;;;;;5075106;28;19923;-71
2023/12/16 09:16:08;;;;;;;;;;;;;;;;;;5075606;28;19916;-70
2023/12/16 09:18:34;;;;;;;;;;;;;;;;;;5075583;28;19912;-71
2023/12/16 09:21:00;;;;;;;;;;;;;;;;;;5073808;28;19909;-71
2023/12/16 09:23:26;;;;;;;;;;;;;;;;;;5074151;28;19966;-71
2023/12/16 09:25:53;;;;;;;;;;;;;;;;;;5074973;28;19908;-71
2023/12/16 09:28:19;;;;;;;;;;;;;;;;;;5075201;28;19908;-71
2023/12/16 09:30:45;;;;;;;;;;;;;;;;;;5075775;28;19919;-71
2023/12/16 09:33:11;;;;;;;;;;;;;;;;;;5075216;28;20368;-71
2023/12/16 09:35:37;;;;;;;;;;;;;;;;;;5075186;28;20326;-71
2023/12/16 09:38:03;;;;;;;;;;;;;;;;;;5075272;28;19909;-71
2023/12/16 09:40:29;;;;;;;;;;;;;;;;;;5074610;28;19908;-70
2023/12/16 09:42:55;;;;;;;;;;;;;;;;;;5075194;28;19913;-71
2023/12/16 09:45:21;;;;;;;;;;;;;;;;;;5075286;28;19915;-71
2023/12/16 09:47:47;;;;;;;;;;;;;;;;;;5074600;28;19909;-71
2023/12/16 09:50:14;;;;;;;;;;;;;;;;;;5073602;28;19962;-71
2023/12/16 09:52:40;;;;;;;;;;;;;;;;;;5074732;28;19917;-71
2023/12/16 09:55:06;;;;;;;;;;;;;;;;;;5074427;28;19943;-71
2023/12/16 09:57:34;;;;;;;;;;;;;;;;;;5073451;28;19909;-71
2023/12/16 10:00:00;;;;;;;;;;;;;;;;;;5074704;28;19909;-71
2023/12/16 10:02:27;;;;;;;;;;;;;;;;;;5074216;28;20428;-71
2023/12/16 10:04:53;;;;;;;;;;;;;;;;;;5074514;28;19948;-71
2023/12/16 10:07:19;;;;;;;;;;;;;;;;;;5074650;28;19915;-71
2023/12/16 10:09:45;;;;;;;;;;;;;;;;;;5074133;28;19916;-71
2023/12/16 10:12:11;;;;;;;;;;;;;;;;;;5074407;28;19919;-71
2023/12/16 10:14:37;;;;;;;;;;;;;;;;;;5074460;28;19955;-71
2023/12/16 10:17:03;;;;;;;;;;;;;;;;;;5073931;28;19934;-71
2023/12/16 10:19:29;;;;;;;;;;;;;;;;;;5074340;28;19908;-71
2023/12/16 10:21:54;;;;;;;;;;;;;;;;;;5074228;28;19919;-71
2023/12/16 10:24:20;;;;;;;;;;;;;;;;;;5073871;28;19908;-71
2023/12/16 10:26:46;;;;;;;;;;;;;;;;;;5074233;28;19908;-71
2023/12/16 10:29:12;;;;;;;;;;;;;;;;;;5073644;28;19927;-71
2023/12/16 10:31:39;;;;;;;;;;;;;;;;;;5072731;28;19939;-71
2023/12/16 10:34:05;;;;;;;;;;;;;;;;;;5074128;28;19912;-71
2023/12/16 10:36:31;;;;;;;;;;;;;;;;;;5072406;28;19923;-71
2023/12/16 10:38:56;;;;;;;;;;;;;;;;;;5074038;28;20003;-71
2023/12/16 10:41:22;;;;;;;;;;;;;;;;;;5074065;28;19913;-71
2023/12/16 10:43:48;;;;;;;;;;;;;;;;;;5073577;28;19908;-71
2023/12/16 10:46:14;;;;;;;;;;;;;;;;;;5073929;28;20386;-71
2023/12/16 10:48:40;;;;;;;;;;;;;;;;;;5073863;28;19956;-71
2023/12/16 10:51:06;;;;;;;;;;;;;;;;;;5072302;28;19909;-71
2023/12/16 10:53:32;;;;;;;;;;;;;;;;;;5073766;28;19986;-71
2023/12/16 10:55:58;;;;;;;;;;;;;;;;;;5073848;28;19940;-71
2023/12/16 10:58:25;;;;;;;;;;;;;;;;;;5072181;28;19999;-71
2023/12/16 11:00:51;;;;;;;;;;;;;;;;;;5073848;28;19961;-71
2023/12/16 11:03:17;;;;;;;;;;;;;;;;;;5074187;28;20319;-71
2023/12/16 11:05:44;;;;;;;;;;;;;;;;;;5073445;28;19946;-71
2023/12/16 11:08:10;;;;;;;;;;;;;;;;;;5073889;28;19909;-71
2023/12/16 11:10:36;;;;;;;;;;;;;;;;;;5073711;28;19915;-71
2023/12/16 11:13:03;;;;;;;;;;;;;;;;;;5071987;28;19916;-71
2023/12/16 11:15:29;;;;;;;;;;;;;;;;;;5072462;28;19909;-71
2023/12/16 11:17:55;;;;;;;;;;;;;;;;;;5073670;28;20322;-71
2023/12/16 11:20:21;;;;;;;;;;;;;;;;;;5073281;28;19908;-71
2023/12/16 11:22:47;;;;;;;;;;;;;;;;;;5073717;28;19915;-71
2023/12/16 11:25:13;;;;;;;;;;;;;;;;;;5073600;28;19909;-71
2023/12/16 11:27:39;;;;;;;;;;;;;;;;;;5073133;28;19908;-71
2023/12/16 11:30:06;;;;;;;;;;;;;;;;;;5073383;28;19932;-71
2023/12/16 11:32:32;;;;;;;;;;;;;;;;;;5074360;28;19917;-71
2023/12/16 11:34:58;;;;;;;;;;;;;;;;;;5077459;28;20011;-71
2023/12/16 11:37:24;;;;;;;;;;;;;;;;;;5076284;28;20321;-71
2023/12/16 11:39:50;;;;;;;;;;;;;;;;;;5076961;28;19913;-71
2023/12/16 11:42:16;;;;;;;;;;;;;;;;;;5077309;28;19969;-71
2023/12/16 11:44:42;;;;;;;;;;;;;;;;;;5075997;28;19915;-70
2023/12/16 11:47:08;;;;;;;;;;;;;;;;;;5076923;28;19912;-70
2023/12/16 11:49:34;;;;;;;;;;;;;;;;;;5077211;28;19993;-70
2023/12/16 11:51:59;;;;;;;;;;;;;;;;;;5077055;28;19912;-70
2023/12/16 11:54:26;;;;;;;;;;;;;;;;;;5077090;28;19916;-70
2023/12/16 11:56:52;;;;;;;;;;;;;;;;;;5076946;28;19912;-70
2023/12/16 11:59:18;;;;;;;;;;;;;;;;;;5076967;28;19908;-70
2023/12/16 12:01:44;;;;;;;;;;;;;;;;;;5076705;28;19915;-70
2023/12/16 12:04:10;;;;;;;;;;;;;;;;;;5076894;28;19912;-70
2023/12/16 12:06:37;;;;;;;;;;;;;;;;;;5075720;28;19915;-70
2023/12/16 12:09:02;;;;;;;;;;;;;;;;;;5076498;28;20253;-70
2023/12/16 12:11:28;;;;;;;;;;;;;;;;;;5076819;28;19908;-70
2023/12/16 12:13:55;;;;;;;;;;;;;;;;;;5075484;28;19961;-70
2023/12/16 12:16:21;;;;;;;;;;;;;;;;;;5076262;28;19909;-70
2023/12/16 12:18:47;;;;;;;;;;;;;;;;;;5076701;28;20058;-70
2023/12/16 12:21:13;;;;;;;;;;;;;;;;;;5076670;28;20387;-70
2023/12/16 12:23:42;;;;;;;;;;;;;;;;;;5076269;28;20277;-70
2023/12/16 12:26:08;;;;;;;;;;;;;;;;;;5075202;28;20369;-71
2023/12/16 12:28:34;;;;;;;;;;;;;;;;;;5076368;28;19917;-70
2023/12/16 12:30:59;;;;;;;;;;;;;;;;;;5076023;28;20122;-70
2023/12/16 12:33:25;;;;;;;;;;;;;;;;;;5076376;28;19993;-70
2023/12/16 12:35:51;;;;;;;;;;;;;;;;;;5075914;28;19909;-70
2023/12/16 12:38:17;;;;;;;;;;;;;;;;;;5076261;28;20008;-70
2023/12/16 12:40:43;;;;;;;;;;;;;;;;;;5076156;28;19908;-70
2023/12/16 12:43:09;;;;;;;;;;;;;;;;;;5075350;28;19939;-70
2023/12/16 12:45:35;;;;;;;;;;;;;;;;;;5075363;28;19958;-71
2023/12/16 12:48:01;;;;;;;;;;;;;;;;;;5076163;28;20014;-70
2023/12/16 12:50:27;;;;;;;;;;;;;;;;;;5075652;28;19912;-70
2023/12/16 12:52:53;;;;;;;;;;;;;;;;;;5075923;28;20003;-70
2023/12/16 12:55:19;;;;;;;;;;;;;;;;;;5076051;28;19971;-71
2023/12/16 12:57:45;;;;;;;;;;;;;;;;;;5075738;28;19919;-70
2023/12/16 13:00:11;;;;;;;;;;;;;;;;;;5075889;28;19908;-71
2023/12/16 13:02:37;;;;;;;;;;;;;;;;;;5075978;28;19909;-71
2023/12/16 13:05:03;;;;;;;;;;;;;;;;;;5075422;28;20350;-71
2023/12/16 13:07:29;;;;;;;;;;;;;;;;;;5075805;28;20309;-70
2023/12/16 13:09:55;;;;;;;;;;;;;;;;;;5075700;28;20275;-70
2023/12/16 13:12:21;;;;;;;;;;;;;;;;;;5075281;28;19916;-70
2023/12/16 13:14:47;;;;;;;;;;;;;;;;;;5075614;28;19995;-70
2023/12/16 13:17:13;;;;;;;;;;;;;;;;;;5075569;28;19966;-70
2023/12/16 13:19:39;;;;;;;;;;;;;;;;;;5075104;28;19908;-70
2023/12/16 13:22:06;;;;;;;;;;;;;;;;;;5075554;28;19935;-70
2023/12/16 13:24:32;;;;;;;;;;;;;;;;;;5075402;28;20426;-70
2023/12/16 13:26:57;;;;;;;;;;;;;;;;;;5073838;28;19913;-70
2023/12/16 13:29:23;;;;;;;;;;;;;;;;;;5075126;28;20384;-70
2023/12/16 13:31:49;;;;;;;;;;;;;;;;;;5075325;28;20284;-70
2023/12/16 13:34:15;;;;;;;;;;;;;;;;;;5074808;28;19917;-70
2023/12/16 13:36:42;;;;;;;;;;;;;;;;;;5075223;28;19909;-70
2023/12/16 13:39:08;;;;;;;;;;;;;;;;;;5074846;28;19955;-71
2023/12/16 13:41:34;;;;;;;;;;;;;;;;;;5075040;28;19954;-71
2023/12/16 13:44:00;;;;;;;;;;;;;;;;;;5073736;28;19908;-71
2023/12/16 13:46:26;;;;;;;;;;;;;;;;;;5074600;28;20004;-71
2023/12/16 13:48:52;;;;;;;;;;;;;;;;;;5074964;28;20376;-70
2023/12/16 13:51:18;;;;;;;;;;;;;;;;;;5074874;28;19959;-70
2023/12/16 13:53:44;;;;;;;;;;;;;;;;;;5074485;28;19916;-70
2023/12/16 13:56:10;;;;;;;;;;;;;;;;;;5072999;28;20376;-71
2023/12/16 13:58:36;;;;;;;;;;;;;;;;;;5075167;28;19999;-71
2023/12/16 14:01:02;;;;;;;;;;;;;;;;;;5074298;28;20008;-71
2023/12/16 14:03:28;;;;;;;;;;;;;;;;;;5073385;28;19909;-71
2023/12/16 14:05:54;;;;;;;;;;;;;;;;;;5073383;28;19909;-70
2023/12/16 14:08:20;;;;;;;;;;;;;;;;;;5074318;28;19966;-71
2023/12/16 14:10:47;;;;;;;;;;;;;;;;;;5073264;28;19916;-71
2023/12/16 14:13:13;;;;;;;;;;;;;;;;;;5073155;28;20019;-70
2023/12/16 14:15:39;;;;;;;;;;;;;;;;;;5073953;28;19951;-70
2023/12/16 14:18:05;;;;;;;;;;;;;;;;;;5074351;28;19955;-70
2023/12/16 14:20:31;;;;;;;;;;;;;;;;;;5074354;28;19916;-71
2023/12/16 14:22:57;;;;;;;;;;;;;;;;;;5073900;28;19999;-70
2023/12/16 14:25:23;;;;;;;;;;;;;;;;;;5074510;28;19915;-71
2023/12/16 14:27:49;;;;;;;;;;;;;;;;;;5072865;28;19908;-70
2023/12/16 14:30:16;;;;;;;;;;;;;;;;;;5072405;28;19929;-70
2023/12/16 14:32:42;;;;;;;;;;;;;;;;;;5074290;28;19920;-71
2023/12/16 14:35:10;;;;;;;;;;;;;;;;;;5074146;28;20364;-71
2023/12/16 14:37:38;;;;;;;;;;;;;;;;;;5072852;28;21344;-71
2023/12/16 14:40:05;;;;;;;;;;;;;;;;;;5074367;28;19915;-70
2023/12/16 14:42:31;;;;;;;;;;;;;;;;;;5073619;28;19905;-71
2023/12/16 14:44:57;;;;;;;;;;;;;;;;;;5073929;28;19908;-70
2023/12/16 14:47:23;;;;;;;;;;;;;;;;;;5073916;28;19909;-70
2023/12/16 14:49:49;;;;;;;;;;;;;;;;;;5072310;28;19979;-71
2023/12/16 14:52:15;;;;;;;;;;;;;;;;;;5073825;28;19966;-70
2023/12/16 14:54:41;;;;;;;;;;;;;;;;;;5073889;28;20285;-70
2023/12/16 14:57:07;;;;;;;;;;;;;;;;;;5073557;28;19908;-70
2023/12/16 14:59:33;;;;;;;;;;;;;;;;;;5073870;28;19916;-71
2023/12/16 15:01:59;;;;;;;;;;;;;;;;;;5073853;28;19909;-70
2023/12/16 15:04:25;;;;;;;;;;;;;;;;;;5073428;28;19958;-70
2023/12/16 15:06:57;;;;;;;;;;;;;;;;;;5073009;28;19908;-71
2023/12/16 15:09:23;;;;;;;;;;;;;;;;;;5073781;28;20377;-71
2023/12/16 15:11:49;;;;;;;;;;;;;;;;;;5073255;28;19999;-71
2023/12/16 15:14:15;;;;;;;;;;;;;;;;;;5072327;28;19917;-71
2023/12/16 15:16:41;;;;;;;;;;;;;;;;;;5073659;28;19908;-71
2023/12/16 15:19:07;;;;;;;;;;;;;;;;;;5073295;28;20294;-70
2023/12/16 15:21:33;;;;;;;;;;;;;;;;;;5072315;28;19908;-70
2023/12/16 15:24:00;;;;;;;;;;;;;;;;;;5073601;28;19954;-70
2023/12/16 15:26:27;;;;;;;;;;;;;;;;;;5073285;28;19909;-70
2023/12/16 15:28:53;;;;;;;;;;;;;;;;;;5073395;28;19942;-70
2023/12/16 15:31:19;;;;;;;;;;;;;;;;;;5073490;28;19912;-71
2023/12/16 15:33:45;;;;;;;;;;;;;;;;;;5073182;28;20066;-71
2023/12/16 15:36:11;;;;;;;;;;;;;;;;;;5073633;28;19916;-71
2023/12/16 15:38:37;;;;;;;;;;;;;;;;;;5073240;28;19948;-71
2023/12/16 15:41:03;;;;;;;;;;;;;;;;;;5073475;28;19915;-72
2023/12/16 15:43:29;;;;;;;;;;;;;;;;;;5072122;28;19991;-70
2023/12/16 15:45:55;;;;;;;;;;;;;;;;;;5073143;28;19965;-70
2023/12/16 15:48:21;;;;;;;;;;;;;;;;;;5073421;28;19908;-71
2023/12/16 15:50:47;;;;;;;;;;;;;;;;;;5072126;28;19958;-70
2023/12/16 15:53:13;;;;;;;;;;;;;;;;;;5071546;28;19939;-70
2023/12/16 15:55:39;;;;;;;;;;;;;;;;;;5073802;28;20062;-70
2023/12/16 15:58:05;;;;;;;;;;;;;;;;;;5073310;28;19960;-70
2023/12/16 16:00:31;;;;;;;;;;;;;;;;;;5072829;28;19915;-71
2023/12/16 16:02:57;;;;;;;;;;;;;;;;;;5073399;28;19934;-70
2023/12/16 16:05:23;;;;;;;;;;;;;;;;;;5073237;28;19915;-71
2023/12/16 16:07:49;;;;;;;;;;;;;;;;;;5072923;28;19912;-70
2023/12/16 16:10:15;;;;;;;;;;;;;;;;;;5073202;28;19985;-70
2023/12/16 16:12:41;;;;;;;;;;;;;;;;;;5073112;28;19912;-71
2023/12/16 16:15:07;;;;;;;;;;;;;;;;;;5072733;28;19912;-70
2023/12/16 16:17:33;;;;;;;;;;;;;;;;;;5073069;28;19908;-71
2023/12/16 16:19:59;;;;;;;;;;;;;;;;;;5076373;28;20004;-71
2023/12/16 16:22:25;;;;;;;;;;;;;;;;;;5075034;28;19995;-71
2023/12/16 16:24:52;;;;;;;;;;;;;;;;;;5076665;28;20262;-71
2023/12/16 16:27:18;;;;;;;;;;;;;;;;;;5076537;28;19909;-71
2023/12/16 16:29:44;;;;;;;;;;;;;;;;;;5075991;28;19924;-70
2023/12/16 16:32:10;;;;;;;;;;;;;;;;;;5076367;28;19917;-71
2023/12/16 16:34:36;;;;;;;;;;;;;;;;;;5076508;28;19916;-71
2023/12/16 16:37:02;;;;;;;;;;;;;;;;;;5075965;28;19908;-71